sensor_id;sensor_type;location;lat;lon;timestamp;P1;durP1;ratioP1;P2;durP2;ratioP2
66663;SDS011;59683;51.428;-1.994;2023-06-05T06:21:13;10.90;;;3.70;;
66663;SDS011;59683;51.428;-1.994;2023-06-05T06:23:38;11.13;;;3.00;;
66663;SDS011;59683;51.428;-1.994;2023-06-05T06:26:03;11.17;;;3.40;;
66663;SDS011;59683;51.428;-1.994;2023-06-05T06:28:31;14.00;;;3.47;;
66663;SDS011;59683;51.428;-1.994;2023-06-05T06:30:57;7.55;;;4.03;;
66663;SDS011;59683;51.428;-1.994;2023-06-05T06:33:22;7.97;;;2.90;;
66663;SDS011;59683;51.428;-1.994;2023-06-05T06:35:49;9.82;;;3.08;;
66663;SDS011;59683;51.428;-1.994;2023-06-05T06:38:14;7.27;;;3.27;;
66663;SDS011;59683;51.428;-1.994;2023-06-05T06:40:41;10.25;;;3.28;;
66663;SDS011;59683;51.428;-1.994;2023-06-05T06:43:07;7.97;;;3.37;;
66663;SDS011;59683;51.428;-1.994;2023-06-05T06:45:32;7.23;;;3.17;;
66663;SDS011;59683;51.428;-1.994;2023-06-05T06:47:58;6.37;;;2.70;;
66663;SDS011;59683;51.428;-1.994;2023-06-05T06:50:23;8.50;;;3.07;;
66663;SDS011;59683;51.428;-1.994;2023-06-05T06:52:48;14.30;;;4.23;;
66663;SDS011;59683;51.428;-1.994;2023-06-05T06:55:14;13.60;;;3.13;;
66663;SDS011;59683;51.428;-1.994;2023-06-05T06:57:39;7.43;;;2.67;;
66663;SDS011;59683;51.428;-1.994;2023-06-05T07:00:05;5.63;;;2.90;;
66663;SDS011;59683;51.428;-1.994;2023-06-05T07:02:33;5.28;;;3.20;;
66663;SDS011;59683;51.428;-1.994;2023-06-05T07:04:59;9.10;;;3.93;;
66663;SDS011;59683;51.428;-1.994;2023-06-05T07:07:24;7.23;;;4.00;;
66663;SDS011;59683;51.428;-1.994;2023-06-05T07:09:50;7.63;;;3.17;;
66663;SDS011;59683;51.428;-1.994;2023-06-05T07:12:16;11.03;;;3.63;;
66663;SDS011;59683;51.428;-1.994;2023-06-05T07:14:44;7.50;;;3.00;;
66663;SDS011;59683;51.428;-1.994;2023-06-05T07:17:10;5.50;;;2.47;;
66663;SDS011;59683;51.428;-1.994;2023-06-05T07:19:35;5.90;;;2.43;;
66663;SDS011;59683;51.428;-1.994;2023-06-05T07:22:01;6.57;;;2.70;;
66663;SDS011;59683;51.428;-1.994;2023-06-05T07:24:31;9.97;;;3.07;;
66663;SDS011;59683;51.428;-1.994;2023-06-05T07:26:58;12.30;;;3.10;;
66663;SDS011;59683;51.428;-1.994;2023-06-05T07:29:25;6.00;;;2.83;;
66663;SDS011;59683;51.428;-1.994;2023-06-05T07:31:52;8.67;;;2.93;;
66663;SDS011;59683;51.428;-1.994;2023-06-05T07:34:18;6.27;;;3.47;;
66663;SDS011;59683;51.428;-1.994;2023-06-05T07:36:45;7.53;;;2.20;;
66663;SDS011;59683;51.428;-1.994;2023-06-05T07:39:11;6.87;;;2.60;;
66663;SDS011;59683;51.428;-1.994;2023-06-05T07:41:40;6.23;;;2.40;;
66663;SDS011;59683;51.428;-1.994;2023-06-05T07:44:09;7.90;;;2.40;;
66663;SDS011;59683;51.428;-1.994;2023-06-05T07:46:35;11.65;;;3.20;;
66663;SDS011;59683;51.428;-1.994;2023-06-05T07:49:01;8.70;;;2.20;;
66663;SDS011;59683;51.428;-1.994;2023-06-05T07:51:30;7.53;;;2.57;;
66663;SDS011;59683;51.428;-1.994;2023-06-05T07:53:58;6.50;;;2.37;;
66663;SDS011;59683;51.428;-1.994;2023-06-05T07:56:23;5.80;;;2.50;;
66663;SDS011;59683;51.428;-1.994;2023-06-05T07:58:50;7.17;;;3.33;;
66663;SDS011;59683;51.428;-1.994;2023-06-05T08:01:16;7.97;;;2.57;;
66663;SDS011;59683;51.428;-1.994;2023-06-05T08:03:42;7.23;;;2.80;;
66663;SDS011;59683;51.428;-1.994;2023-06-05T08:06:09;8.20;;;2.50;;
66663;SDS011;59683;51.428;-1.994;2023-06-05T08:08:35;10.83;;;2.73;;
66663;SDS011;59683;51.428;-1.994;2023-06-05T08:11:00;4.10;;;2.57;;
66663;SDS011;59683;51.428;-1.994;2023-06-05T08:13:26;4.87;;;2.30;;
66663;SDS011;59683;51.428;-1.994;2023-06-05T08:15:51;7.73;;;2.40;;
66663;SDS011;59683;51.428;-1.994;2023-06-05T08:18:17;6.70;;;2.83;;
66663;SDS011;59683;51.428;-1.994;2023-06-05T08:20:43;7.13;;;2.77;;
66663;SDS011;59683;51.428;-1.994;2023-06-05T08:23:08;7.57;;;2.80;;
66663;SDS011;59683;51.428;-1.994;2023-06-05T08:25:33;6.37;;;3.13;;
66663;SDS011;59683;51.428;-1.994;2023-06-05T08:27:59;6.67;;;2.33;;
66663;SDS011;59683;51.428;-1.994;2023-06-05T08:30:24;7.70;;;2.80;;
66663;SDS011;59683;51.428;-1.994;2023-06-05T08:32:49;6.17;;;2.67;;
66663;SDS011;59683;51.428;-1.994;2023-06-05T08:35:15;12.03;;;3.80;;
66663;SDS011;59683;51.428;-1.994;2023-06-05T08:37:40;7.57;;;3.43;;
66663;SDS011;59683;51.428;-1.994;2023-06-05T08:40:06;6.13;;;3.03;;
66663;SDS011;59683;51.428;-1.994;2023-06-05T08:42:33;5.23;;;3.30;;
66663;SDS011;59683;51.428;-1.994;2023-06-05T08:45:00;8.93;;;3.30;;
66663;SDS011;59683;51.428;-1.994;2023-06-05T08:47:27;9.90;;;4.23;;
66663;SDS011;59683;51.428;-1.994;2023-06-05T08:49:53;8.60;;;3.67;;
66663;SDS011;59683;51.428;-1.994;2023-06-05T08:52:20;7.80;;;4.03;;
66663;SDS011;59683;51.428;-1.994;2023-06-05T08:54:47;6.97;;;3.93;;
66663;SDS011;59683;51.428;-1.994;2023-06-05T08:57:13;7.30;;;3.50;;
66663;SDS011;59683;51.428;-1.994;2023-06-05T08:59:39;4.87;;;2.83;;
66663;SDS011;59683;51.428;-1.994;2023-06-05T09:02:05;7.23;;;3.63;;
66663;SDS011;59683;51.428;-1.994;2023-06-05T09:04:30;7.20;;;3.10;;
66663;SDS011;59683;51.428;-1.994;2023-06-05T09:06:57;5.43;;;3.00;;
66663;SDS011;59683;51.428;-1.994;2023-06-05T09:09:23;8.33;;;3.73;;
66663;SDS011;59683;51.428;-1.994;2023-06-05T09:12:00;8.23;;;3.30;;
66663;SDS011;59683;51.428;-1.994;2023-06-05T09:14:29;7.87;;;3.23;;
66663;SDS011;59683;51.428;-1.994;2023-06-05T09:16:56;9.33;;;3.60;;
66663;SDS011;59683;51.428;-1.994;2023-06-05T09:19:22;7.40;;;3.33;;
66663;SDS011;59683;51.428;-1.994;2023-06-05T09:21:52;7.95;;;2.88;;
66663;SDS011;59683;51.428;-1.994;2023-06-05T09:24:20;6.93;;;3.07;;
66663;SDS011;59683;51.428;-1.994;2023-06-05T09:29:26;8.30;;;2.97;;
66663;SDS011;59683;51.428;-1.994;2023-06-05T09:31:53;11.40;;;3.57;;
66663;SDS011;59683;51.428;-1.994;2023-06-05T09:34:32;9.23;;;3.87;;
66663;SDS011;59683;51.428;-1.994;2023-06-05T09:37:01;6.30;;;3.10;;
66663;SDS011;59683;51.428;-1.994;2023-06-05T09:39:35;7.80;;;3.43;;
66663;SDS011;59683;51.428;-1.994;2023-06-05T09:44:30;7.93;;;3.53;;
66663;SDS011;59683;51.428;-1.994;2023-06-05T09:46:58;7.73;;;3.53;;
66663;SDS011;59683;51.428;-1.994;2023-06-05T09:52:05;9.13;;;3.83;;
66663;SDS011;59683;51.428;-1.994;2023-06-05T09:54:38;7.03;;;3.97;;
66663;SDS011;59683;51.428;-1.994;2023-06-05T09:57:05;6.82;;;3.67;;
66663;SDS011;59683;51.428;-1.994;2023-06-05T09:59:35;7.40;;;4.38;;
66663;SDS011;59683;51.428;-1.994;2023-06-05T10:02:07;7.13;;;4.03;;
66663;SDS011;59683;51.428;-1.994;2023-06-05T10:04:37;8.67;;;4.83;;
66663;SDS011;59683;51.428;-1.994;2023-06-05T10:07:07;8.37;;;4.07;;
66663;SDS011;59683;51.428;-1.994;2023-06-05T10:09:33;9.10;;;3.63;;
66663;SDS011;59683;51.428;-1.994;2023-06-05T10:11:59;8.17;;;3.97;;
66663;SDS011;59683;51.428;-1.994;2023-06-05T10:14:25;8.37;;;4.33;;
66663;SDS011;59683;51.428;-1.994;2023-06-05T10:16:51;9.37;;;4.93;;
66663;SDS011;59683;51.428;-1.994;2023-06-05T10:19:17;8.07;;;4.33;;
66663;SDS011;59683;51.428;-1.994;2023-06-05T10:21:46;8.17;;;4.40;;
66663;SDS011;59683;51.428;-1.994;2023-06-05T10:24:22;6.38;;;4.30;;
66663;SDS011;59683;51.428;-1.994;2023-06-05T10:40:28;6.37;;;3.60;;
66663;SDS011;59683;51.428;-1.994;2023-06-05T10:42:55;7.33;;;3.63;;
66663;SDS011;59683;51.428;-1.994;2023-06-05T10:45:52;9.77;;;3.67;;
66663;SDS011;59683;51.428;-1.994;2023-06-05T10:48:18;6.83;;;3.57;;
66663;SDS011;59683;51.428;-1.994;2023-06-05T10:50:43;5.43;;;3.60;;
66663;SDS011;59683;51.428;-1.994;2023-06-05T10:56:51;12.27;;;4.30;;
66663;SDS011;59683;51.428;-1.994;2023-06-05T10:59:34;6.33;;;2.97;;
66663;SDS011;59683;51.428;-1.994;2023-06-05T11:07:13;6.70;;;3.67;;
66663;SDS011;59683;51.428;-1.994;2023-06-05T11:12:26;6.73;;;3.20;;
66663;SDS011;59683;51.428;-1.994;2023-06-05T11:14:52;4.60;;;3.13;;
66663;SDS011;59683;51.428;-1.994;2023-06-05T11:17:33;7.33;;;2.70;;
66663;SDS011;59683;51.428;-1.994;2023-06-05T11:20:00;4.57;;;2.67;;
66663;SDS011;59683;51.428;-1.994;2023-06-05T11:30:17;5.30;;;2.80;;
66663;SDS011;59683;51.428;-1.994;2023-06-05T11:32:43;4.70;;;2.00;;
66663;SDS011;59683;51.428;-1.994;2023-06-05T11:35:09;3.30;;;1.90;;
66663;SDS011;59683;51.428;-1.994;2023-06-05T11:37:36;4.50;;;2.10;;
66663;SDS011;59683;51.428;-1.994;2023-06-05T11:40:06;4.73;;;2.13;;
66663;SDS011;59683;51.428;-1.994;2023-06-05T11:42:35;5.83;;;2.23;;
66663;SDS011;59683;51.428;-1.994;2023-06-05T11:45:01;7.10;;;1.90;;
66663;SDS011;59683;51.428;-1.994;2023-06-05T11:47:27;3.20;;;1.73;;
66663;SDS011;59683;51.428;-1.994;2023-06-05T11:50:16;6.97;;;2.00;;
66663;SDS011;59683;51.428;-1.994;2023-06-05T11:52:42;6.70;;;1.80;;
66663;SDS011;59683;51.428;-1.994;2023-06-05T11:57:42;3.67;;;2.17;;
66663;SDS011;59683;51.428;-1.994;2023-06-05T12:00:09;5.45;;;2.55;;
66663;SDS011;59683;51.428;-1.994;2023-06-05T12:02:36;5.87;;;2.73;;
66663;SDS011;59683;51.428;-1.994;2023-06-05T12:05:02;4.87;;;2.57;;
66663;SDS011;59683;51.428;-1.994;2023-06-05T12:07:31;6.17;;;2.70;;
66663;SDS011;59683;51.428;-1.994;2023-06-05T12:10:01;5.53;;;2.50;;
66663;SDS011;59683;51.428;-1.994;2023-06-05T12:12:28;4.43;;;2.67;;
66663;SDS011;59683;51.428;-1.994;2023-06-05T12:14:54;7.00;;;3.00;;
66663;SDS011;59683;51.428;-1.994;2023-06-05T12:17:21;4.80;;;2.60;;
66663;SDS011;59683;51.428;-1.994;2023-06-05T12:19:54;5.27;;;2.70;;
66663;SDS011;59683;51.428;-1.994;2023-06-05T12:22:19;8.40;;;3.77;;
66663;SDS011;59683;51.428;-1.994;2023-06-05T12:24:45;5.63;;;2.70;;
66663;SDS011;59683;51.428;-1.994;2023-06-05T12:27:11;7.18;;;2.80;;
66663;SDS011;59683;51.428;-1.994;2023-06-05T12:29:38;8.25;;;3.40;;
66663;SDS011;59683;51.428;-1.994;2023-06-05T12:32:23;5.18;;;3.22;;
66663;SDS011;59683;51.428;-1.994;2023-06-05T12:34:50;5.80;;;3.42;;
66663;SDS011;59683;51.428;-1.994;2023-06-05T12:37:32;5.20;;;3.00;;
66663;SDS011;59683;51.428;-1.994;2023-06-05T12:40:07;6.38;;;3.60;;
66663;SDS011;59683;51.428;-1.994;2023-06-05T12:42:36;8.35;;;3.33;;
66663;SDS011;59683;51.428;-1.994;2023-06-05T12:45:03;5.70;;;3.40;;
66663;SDS011;59683;51.428;-1.994;2023-06-05T12:47:32;5.72;;;3.20;;
66663;SDS011;59683;51.428;-1.994;2023-06-05T12:49:59;8.70;;;2.88;;
66663;SDS011;59683;51.428;-1.994;2023-06-05T12:52:26;3.95;;;2.25;;
66663;SDS011;59683;51.428;-1.994;2023-06-05T12:54:52;3.88;;;2.30;;
66663;SDS011;59683;51.428;-1.994;2023-06-05T12:57:18;4.60;;;2.50;;
66663;SDS011;59683;51.428;-1.994;2023-06-05T12:59:46;5.28;;;2.80;;
66663;SDS011;59683;51.428;-1.994;2023-06-05T13:02:12;4.95;;;2.67;;
66663;SDS011;59683;51.428;-1.994;2023-06-05T13:04:38;5.78;;;2.70;;
66663;SDS011;59683;51.428;-1.994;2023-06-05T13:07:05;5.60;;;3.17;;
66663;SDS011;59683;51.428;-1.994;2023-06-05T13:09:31;6.43;;;3.00;;
66663;SDS011;59683;51.428;-1.994;2023-06-05T13:11:57;6.13;;;2.95;;
66663;SDS011;59683;51.428;-1.994;2023-06-05T13:14:24;3.83;;;2.45;;
66663;SDS011;59683;51.428;-1.994;2023-06-05T13:16:50;6.10;;;2.67;;
66663;SDS011;59683;51.428;-1.994;2023-06-05T13:19:16;4.97;;;2.85;;
66663;SDS011;59683;51.428;-1.994;2023-06-05T13:21:41;4.53;;;2.80;;
66663;SDS011;59683;51.428;-1.994;2023-06-05T13:24:07;4.93;;;2.83;;
66663;SDS011;59683;51.428;-1.994;2023-06-05T13:26:32;5.93;;;3.00;;
66663;SDS011;59683;51.428;-1.994;2023-06-05T13:28:57;6.43;;;3.00;;
66663;SDS011;59683;51.428;-1.994;2023-06-05T13:31:23;6.32;;;3.65;;
66663;SDS011;59683;51.428;-1.994;2023-06-05T13:33:49;7.13;;;4.13;;
66663;SDS011;59683;51.428;-1.994;2023-06-05T13:36:15;5.03;;;3.50;;
66663;SDS011;59683;51.428;-1.994;2023-06-05T13:38:41;6.63;;;3.65;;
66663;SDS011;59683;51.428;-1.994;2023-06-05T13:41:07;9.25;;;3.95;;
66663;SDS011;59683;51.428;-1.994;2023-06-05T13:43:33;5.85;;;3.63;;
66663;SDS011;59683;51.428;-1.994;2023-06-05T13:45:59;7.30;;;3.78;;
66663;SDS011;59683;51.428;-1.994;2023-06-05T13:48:25;5.60;;;3.70;;
66663;SDS011;59683;51.428;-1.994;2023-06-05T13:50:50;5.28;;;3.70;;
66663;SDS011;59683;51.428;-1.994;2023-06-05T13:53:16;5.05;;;3.60;;
66663;SDS011;59683;51.428;-1.994;2023-06-05T13:55:41;8.35;;;3.72;;
66663;SDS011;59683;51.428;-1.994;2023-06-05T13:58:07;5.18;;;3.60;;
66663;SDS011;59683;51.428;-1.994;2023-06-05T14:00:34;4.88;;;3.20;;
66663;SDS011;59683;51.428;-1.994;2023-06-05T14:02:59;5.70;;;3.55;;
66663;SDS011;59683;51.428;-1.994;2023-06-05T14:05:25;5.90;;;3.63;;
66663;SDS011;59683;51.428;-1.994;2023-06-05T14:07:51;7.85;;;3.75;;
66663;SDS011;59683;51.428;-1.994;2023-06-05T14:10:18;6.25;;;2.80;;
66663;SDS011;59683;51.428;-1.994;2023-06-05T14:12:45;5.57;;;3.00;;
66663;SDS011;59683;51.428;-1.994;2023-06-05T14:15:11;5.68;;;2.58;;
66663;SDS011;59683;51.428;-1.994;2023-06-05T14:17:36;6.55;;;3.50;;
66663;SDS011;59683;51.428;-1.994;2023-06-05T14:20:01;5.72;;;2.90;;
66663;SDS011;59683;51.428;-1.994;2023-06-05T14:22:27;4.07;;;3.10;;
66663;SDS011;59683;51.428;-1.994;2023-06-05T14:24:53;5.97;;;2.90;;
66663;SDS011;59683;51.428;-1.994;2023-06-05T14:27:18;5.43;;;2.78;;
66663;SDS011;59683;51.428;-1.994;2023-06-05T14:29:44;5.55;;;3.10;;
66663;SDS011;59683;51.428;-1.994;2023-06-05T14:32:10;4.18;;;2.60;;
66663;SDS011;59683;51.428;-1.994;2023-06-05T14:34:36;8.13;;;2.70;;
66663;SDS011;59683;51.428;-1.994;2023-06-05T14:37:02;4.75;;;2.47;;
66663;SDS011;59683;51.428;-1.994;2023-06-05T14:39:30;4.10;;;2.42;;
66663;SDS011;59683;51.428;-1.994;2023-06-05T14:41:56;5.18;;;2.63;;
66663;SDS011;59683;51.428;-1.994;2023-06-05T14:44:21;5.88;;;2.42;;
66663;SDS011;59683;51.428;-1.994;2023-06-05T14:46:46;4.25;;;2.67;;
66663;SDS011;59683;51.428;-1.994;2023-06-05T14:49:12;3.50;;;2.63;;
66663;SDS011;59683;51.428;-1.994;2023-06-05T14:51:38;5.75;;;2.65;;
66663;SDS011;59683;51.428;-1.994;2023-06-05T14:54:03;5.15;;;2.08;;
66663;SDS011;59683;51.428;-1.994;2023-06-05T14:56:29;5.05;;;2.10;;
66663;SDS011;59683;51.428;-1.994;2023-06-05T14:58:54;4.10;;;1.85;;
66663;SDS011;59683;51.428;-1.994;2023-06-05T15:01:20;6.97;;;1.90;;
66663;SDS011;59683;51.428;-1.994;2023-06-05T15:03:45;5.50;;;2.08;;
66663;SDS011;59683;51.428;-1.994;2023-06-05T15:06:11;5.93;;;2.30;;
66663;SDS011;59683;51.428;-1.994;2023-06-05T15:08:37;5.30;;;2.17;;
66663;SDS011;59683;51.428;-1.994;2023-06-05T15:11:02;3.92;;;1.95;;
66663;SDS011;59683;51.428;-1.994;2023-06-05T15:13:28;4.68;;;1.70;;
66663;SDS011;59683;51.428;-1.994;2023-06-05T15:15:53;3.45;;;2.22;;
66663;SDS011;59683;51.428;-1.994;2023-06-05T15:18:18;4.05;;;2.22;;
66663;SDS011;59683;51.428;-1.994;2023-06-05T15:20:44;8.13;;;2.45;;
66663;SDS011;59683;51.428;-1.994;2023-06-05T15:23:09;4.78;;;2.08;;
66663;SDS011;59683;51.428;-1.994;2023-06-05T15:25:35;6.68;;;2.20;;
66663;SDS011;59683;51.428;-1.994;2023-06-05T15:28:01;4.45;;;2.03;;
66663;SDS011;59683;51.428;-1.994;2023-06-05T15:30:29;4.40;;;2.00;;
66663;SDS011;59683;51.428;-1.994;2023-06-05T15:32:54;4.00;;;2.20;;
66663;SDS011;59683;51.428;-1.994;2023-06-05T15:35:20;4.53;;;2.20;;
66663;SDS011;59683;51.428;-1.994;2023-06-05T15:37:45;4.00;;;2.38;;
66663;SDS011;59683;51.428;-1.994;2023-06-05T15:40:11;3.55;;;2.10;;
66663;SDS011;59683;51.428;-1.994;2023-06-05T15:42:37;3.67;;;1.98;;
66663;SDS011;59683;51.428;-1.994;2023-06-05T15:45:09;4.32;;;2.40;;
66663;SDS011;59683;51.428;-1.994;2023-06-05T15:47:36;5.28;;;2.17;;
66663;SDS011;59683;51.428;-1.994;2023-06-05T15:50:02;5.72;;;2.75;;
66663;SDS011;59683;51.428;-1.994;2023-06-05T15:52:32;5.20;;;2.58;;
66663;SDS011;59683;51.428;-1.994;2023-06-05T15:55:01;5.35;;;2.33;;
66663;SDS011;59683;51.428;-1.994;2023-06-05T15:57:27;4.75;;;2.33;;
66663;SDS011;59683;51.428;-1.994;2023-06-05T15:59:52;4.47;;;2.30;;
66663;SDS011;59683;51.428;-1.994;2023-06-05T16:02:18;6.95;;;1.80;;
66663;SDS011;59683;51.428;-1.994;2023-06-05T16:04:44;3.50;;;1.88;;
66663;SDS011;59683;51.428;-1.994;2023-06-05T16:07:10;5.15;;;2.13;;
66663;SDS011;59683;51.428;-1.994;2023-06-05T16:09:35;5.55;;;2.25;;
66663;SDS011;59683;51.428;-1.994;2023-06-05T16:12:01;5.82;;;2.40;;
66663;SDS011;59683;51.428;-1.994;2023-06-05T16:14:27;5.97;;;2.60;;
66663;SDS011;59683;51.428;-1.994;2023-06-05T16:16:53;3.58;;;2.10;;
66663;SDS011;59683;51.428;-1.994;2023-06-05T16:19:19;3.40;;;1.98;;
66663;SDS011;59683;51.428;-1.994;2023-06-05T16:21:45;4.90;;;2.58;;
66663;SDS011;59683;51.428;-1.994;2023-06-05T16:24:12;6.68;;;2.25;;
66663;SDS011;59683;51.428;-1.994;2023-06-05T16:26:38;5.38;;;2.03;;
66663;SDS011;59683;51.428;-1.994;2023-06-05T16:29:05;4.55;;;2.28;;
66663;SDS011;59683;51.428;-1.994;2023-06-05T16:31:30;4.38;;;2.17;;
66663;SDS011;59683;51.428;-1.994;2023-06-05T16:33:56;6.93;;;2.33;;
66663;SDS011;59683;51.428;-1.994;2023-06-05T16:36:21;4.32;;;1.95;;
66663;SDS011;59683;51.428;-1.994;2023-06-05T16:38:47;6.45;;;2.40;;
66663;SDS011;59683;51.428;-1.994;2023-06-05T16:41:13;8.48;;;2.30;;
66663;SDS011;59683;51.428;-1.994;2023-06-05T16:43:38;5.93;;;2.42;;
66663;SDS011;59683;51.428;-1.994;2023-06-05T16:46:04;5.32;;;2.35;;
66663;SDS011;59683;51.428;-1.994;2023-06-05T16:48:30;9.00;;;2.25;;
66663;SDS011;59683;51.428;-1.994;2023-06-05T16:50:57;5.10;;;2.00;;
66663;SDS011;59683;51.428;-1.994;2023-06-05T16:53:22;7.77;;;2.77;;
66663;SDS011;59683;51.428;-1.994;2023-06-05T16:55:48;6.63;;;2.47;;
66663;SDS011;59683;51.428;-1.994;2023-06-05T16:58:13;8.30;;;2.38;;
66663;SDS011;59683;51.428;-1.994;2023-06-05T17:00:39;3.83;;;2.10;;
66663;SDS011;59683;51.428;-1.994;2023-06-05T17:03:05;6.07;;;2.03;;
66663;SDS011;59683;51.428;-1.994;2023-06-05T17:05:31;6.50;;;2.40;;
66663;SDS011;59683;51.428;-1.994;2023-06-05T17:07:56;7.90;;;2.40;;
66663;SDS011;59683;51.428;-1.994;2023-06-05T17:10:22;6.27;;;2.20;;
66663;SDS011;59683;51.428;-1.994;2023-06-05T17:12:47;7.43;;;2.77;;
66663;SDS011;59683;51.428;-1.994;2023-06-05T17:15:12;5.00;;;2.67;;
66663;SDS011;59683;51.428;-1.994;2023-06-05T17:17:39;6.47;;;3.53;;
66663;SDS011;59683;51.428;-1.994;2023-06-05T17:20:05;6.87;;;3.10;;
66663;SDS011;59683;51.428;-1.994;2023-06-05T17:22:32;8.50;;;3.47;;
66663;SDS011;59683;51.428;-1.994;2023-06-05T17:24:58;5.13;;;3.03;;
66663;SDS011;59683;51.428;-1.994;2023-06-05T17:27:23;5.37;;;3.20;;
66663;SDS011;59683;51.428;-1.994;2023-06-05T17:29:49;8.47;;;3.17;;
66663;SDS011;59683;51.428;-1.994;2023-06-05T17:32:15;6.90;;;3.93;;
66663;SDS011;59683;51.428;-1.994;2023-06-05T17:34:40;7.70;;;4.17;;
66663;SDS011;59683;51.428;-1.994;2023-06-05T17:37:06;8.40;;;3.47;;
66663;SDS011;59683;51.428;-1.994;2023-06-05T17:39:32;6.50;;;3.43;;
66663;SDS011;59683;51.428;-1.994;2023-06-05T17:41:58;8.67;;;4.00;;
66663;SDS011;59683;51.428;-1.994;2023-06-05T17:44:23;6.47;;;3.87;;
66663;SDS011;59683;51.428;-1.994;2023-06-05T17:46:50;6.47;;;4.73;;
66663;SDS011;59683;51.428;-1.994;2023-06-05T17:49:15;10.43;;;4.90;;
66663;SDS011;59683;51.428;-1.994;2023-06-05T17:51:41;7.67;;;4.97;;
66663;SDS011;59683;51.428;-1.994;2023-06-05T17:54:09;7.00;;;4.83;;
66663;SDS011;59683;51.428;-1.994;2023-06-05T17:56:34;9.90;;;5.60;;
66663;SDS011;59683;51.428;-1.994;2023-06-05T17:59:02;11.10;;;5.83;;
66663;SDS011;59683;51.428;-1.994;2023-06-05T18:01:27;10.33;;;5.40;;
66663;SDS011;59683;51.428;-1.994;2023-06-05T18:03:53;10.90;;;5.63;;
66663;SDS011;59683;51.428;-1.994;2023-06-05T18:06:18;8.57;;;5.27;;
66663;SDS011;59683;51.428;-1.994;2023-06-05T18:08:44;8.70;;;4.67;;
66663;SDS011;59683;51.428;-1.994;2023-06-05T18:11:09;9.03;;;4.07;;
66663;SDS011;59683;51.428;-1.994;2023-06-05T18:13:35;8.53;;;4.10;;
66663;SDS011;59683;51.428;-1.994;2023-06-05T18:16:00;9.27;;;4.40;;
66663;SDS011;59683;51.428;-1.994;2023-06-05T18:18:27;6.97;;;3.57;;
66663;SDS011;59683;51.428;-1.994;2023-06-05T18:20:53;7.97;;;4.17;;
66663;SDS011;59683;51.428;-1.994;2023-06-05T18:23:18;10.40;;;4.43;;
66663;SDS011;59683;51.428;-1.994;2023-06-05T18:25:44;9.83;;;3.87;;
66663;SDS011;59683;51.428;-1.994;2023-06-05T18:28:09;7.67;;;3.67;;
66663;SDS011;59683;51.428;-1.994;2023-06-05T18:30:35;10.07;;;3.90;;
66663;SDS011;59683;51.428;-1.994;2023-06-05T18:33:00;9.30;;;4.47;;
66663;SDS011;59683;51.428;-1.994;2023-06-05T18:35:25;8.90;;;4.70;;
66663;SDS011;59683;51.428;-1.994;2023-06-05T18:37:51;5.43;;;3.27;;
66663;SDS011;59683;51.428;-1.994;2023-06-05T18:40:17;10.20;;;4.03;;
66663;SDS011;59683;51.428;-1.994;2023-06-05T18:42:42;7.50;;;3.83;;
66663;SDS011;59683;51.428;-1.994;2023-06-05T18:45:08;8.63;;;3.70;;
66663;SDS011;59683;51.428;-1.994;2023-06-05T18:47:33;7.63;;;4.33;;
66663;SDS011;59683;51.428;-1.994;2023-06-05T18:50:00;6.27;;;3.60;;
66663;SDS011;59683;51.428;-1.994;2023-06-05T18:52:25;7.97;;;3.20;;
66663;SDS011;59683;51.428;-1.994;2023-06-05T18:54:51;6.87;;;3.30;;
66663;SDS011;59683;51.428;-1.994;2023-06-05T18:57:16;7.83;;;3.87;;
66663;SDS011;59683;51.428;-1.994;2023-06-05T18:59:43;8.70;;;3.70;;
66663;SDS011;59683;51.428;-1.994;2023-06-05T19:02:08;9.03;;;3.67;;
66663;SDS011;59683;51.428;-1.994;2023-06-05T19:04:34;8.63;;;4.27;;
66663;SDS011;59683;51.428;-1.994;2023-06-05T19:06:59;9.43;;;4.70;;
66663;SDS011;59683;51.428;-1.994;2023-06-05T19:09:25;7.60;;;4.23;;
66663;SDS011;59683;51.428;-1.994;2023-06-05T19:11:50;12.13;;;4.60;;
66663;SDS011;59683;51.428;-1.994;2023-06-05T19:14:16;7.57;;;4.13;;
66663;SDS011;59683;51.428;-1.994;2023-06-05T19:16:42;10.70;;;5.17;;
66663;SDS011;59683;51.428;-1.994;2023-06-05T19:19:08;9.23;;;4.70;;
66663;SDS011;59683;51.428;-1.994;2023-06-05T19:21:36;11.63;;;5.60;;
66663;SDS011;59683;51.428;-1.994;2023-06-05T19:24:02;9.03;;;5.57;;
66663;SDS011;59683;51.428;-1.994;2023-06-05T19:26:27;8.77;;;5.50;;
66663;SDS011;59683;51.428;-1.994;2023-06-05T19:28:54;9.47;;;5.87;;
66663;SDS011;59683;51.428;-1.994;2023-06-05T19:31:19;10.47;;;5.33;;
66663;SDS011;59683;51.428;-1.994;2023-06-05T19:33:45;8.53;;;4.90;;
66663;SDS011;59683;51.428;-1.994;2023-06-05T19:36:10;10.50;;;5.77;;
66663;SDS011;59683;51.428;-1.994;2023-06-05T19:38:36;12.23;;;5.57;;
66663;SDS011;59683;51.428;-1.994;2023-06-05T19:41:01;11.43;;;6.00;;
66663;SDS011;59683;51.428;-1.994;2023-06-05T19:43:27;10.07;;;5.70;;
66663;SDS011;59683;51.428;-1.994;2023-06-05T19:45:52;12.03;;;6.30;;
66663;SDS011;59683;51.428;-1.994;2023-06-05T19:48:18;10.83;;;6.50;;
66663;SDS011;59683;51.428;-1.994;2023-06-05T19:50:45;11.05;;;6.28;;
66663;SDS011;59683;51.428;-1.994;2023-06-05T19:53:10;9.97;;;5.77;;
66663;SDS011;59683;51.428;-1.994;2023-06-05T19:55:36;12.85;;;6.57;;
66663;SDS011;59683;51.428;-1.994;2023-06-05T19:58:03;11.15;;;5.65;;
66663;SDS011;59683;51.428;-1.994;2023-06-05T20:00:28;11.50;;;5.67;;
66663;SDS011;59683;51.428;-1.994;2023-06-05T20:02:54;9.90;;;6.50;;
66663;SDS011;59683;51.428;-1.994;2023-06-05T20:05:19;10.27;;;6.13;;
66663;SDS011;59683;51.428;-1.994;2023-06-05T20:07:45;12.43;;;5.87;;
66663;SDS011;59683;51.428;-1.994;2023-06-05T20:10:11;14.80;;;6.37;;
66663;SDS011;59683;51.428;-1.994;2023-06-05T20:12:37;17.13;;;6.70;;
66663;SDS011;59683;51.428;-1.994;2023-06-05T20:15:02;9.57;;;6.10;;
66663;SDS011;59683;51.428;-1.994;2023-06-05T20:17:28;10.93;;;6.23;;
66663;SDS011;59683;51.428;-1.994;2023-06-05T20:19:53;15.57;;;6.97;;
66663;SDS011;59683;51.428;-1.994;2023-06-05T20:22:18;12.17;;;6.43;;
66663;SDS011;59683;51.428;-1.994;2023-06-05T20:24:45;12.80;;;6.10;;
66663;SDS011;59683;51.428;-1.994;2023-06-05T20:27:10;14.03;;;7.17;;
66663;SDS011;59683;51.428;-1.994;2023-06-05T20:29:36;13.33;;;7.13;;
66663;SDS011;59683;51.428;-1.994;2023-06-05T20:32:02;12.40;;;6.83;;
